sensor_id;sensor_type;location;lat;lon;timestamp;P1;durP1;ratioP1;P2;durP2;ratioP2
2638;SDS011;1329;51.384;7.122;2023-04-03T00:01:03;6.90;;;6.30;;
2638;SDS011;1329;51.384;7.122;2023-04-03T00:03:31;6.73;;;6.20;;
2638;SDS011;1329;51.384;7.122;2023-04-03T00:06:02;7.33;;;6.20;;
2638;SDS011;1329;51.384;7.122;2023-04-03T00:08:31;8.23;;;6.80;;
2638;SDS011;1329;51.384;7.122;2023-04-03T00:11:01;6.93;;;6.33;;
2638;SDS011;1329;51.384;7.122;2023-04-03T00:13:28;6.87;;;6.27;;
2638;SDS011;1329;51.384;7.122;2023-04-03T00:15:56;6.70;;;6.10;;
2638;SDS011;1329;51.384;7.122;2023-04-03T00:18:24;7.03;;;6.33;;
2638;SDS011;1329;51.384;7.122;2023-04-03T00:20:52;7.03;;;6.37;;
2638;SDS011;1329;51.384;7.122;2023-04-03T00:23:22;6.70;;;6.10;;
2638;SDS011;1329;51.384;7.122;2023-04-03T00:25:55;6.83;;;6.20;;
2638;SDS011;1329;51.384;7.122;2023-04-03T00:28:31;6.57;;;6.00;;
2638;SDS011;1329;51.384;7.122;2023-04-03T00:30:59;7.33;;;6.63;;
2638;SDS011;1329;51.384;7.122;2023-04-03T00:33:27;6.63;;;6.03;;
2638;SDS011;1329;51.384;7.122;2023-04-03T00:35:57;7.70;;;7.00;;
2638;SDS011;1329;51.384;7.122;2023-04-03T00:38:24;7.00;;;6.30;;
2638;SDS011;1329;51.384;7.122;2023-04-03T00:40:52;7.10;;;6.50;;
2638;SDS011;1329;51.384;7.122;2023-04-03T00:43:20;6.90;;;6.30;;
2638;SDS011;1329;51.384;7.122;2023-04-03T00:45:58;8.27;;;6.70;;
2638;SDS011;1329;51.384;7.122;2023-04-03T00:48:29;7.03;;;6.43;;
2638;SDS011;1329;51.384;7.122;2023-04-03T00:51:07;6.77;;;6.13;;
2638;SDS011;1329;51.384;7.122;2023-04-03T00:53:40;7.40;;;6.70;;
2638;SDS011;1329;51.384;7.122;2023-04-03T00:56:15;7.90;;;7.20;;
2638;SDS011;1329;51.384;7.122;2023-04-03T00:58:50;7.47;;;6.67;;
2638;SDS011;1329;51.384;7.122;2023-04-03T01:01:32;7.53;;;6.70;;
2638;SDS011;1329;51.384;7.122;2023-04-03T01:06:30;7.23;;;6.53;;
2638;SDS011;1329;51.384;7.122;2023-04-03T01:09:00;7.83;;;7.03;;
2638;SDS011;1329;51.384;7.122;2023-04-03T01:11:28;7.23;;;6.53;;
2638;SDS011;1329;51.384;7.122;2023-04-03T01:13:54;7.27;;;6.67;;
2638;SDS011;1329;51.384;7.122;2023-04-03T01:16:21;7.27;;;6.67;;
2638;SDS011;1329;51.384;7.122;2023-04-03T01:18:50;6.77;;;6.17;;
2638;SDS011;1329;51.384;7.122;2023-04-03T01:21:23;6.97;;;6.37;;
2638;SDS011;1329;51.384;7.122;2023-04-03T01:24:27;7.20;;;6.60;;
2638;SDS011;1329;51.384;7.122;2023-04-03T01:27:01;7.43;;;6.70;;
2638;SDS011;1329;51.384;7.122;2023-04-03T01:29:30;8.33;;;7.53;;
2638;SDS011;1329;51.384;7.122;2023-04-03T01:31:59;7.57;;;6.87;;
2638;SDS011;1329;51.384;7.122;2023-04-03T01:34:28;7.37;;;6.77;;
2638;SDS011;1329;51.384;7.122;2023-04-03T01:36:55;7.80;;;7.00;;
2638;SDS011;1329;51.384;7.122;2023-04-03T01:39:22;6.77;;;6.17;;
2638;SDS011;1329;51.384;7.122;2023-04-03T01:41:50;9.80;;;7.07;;
2638;SDS011;1329;51.384;7.122;2023-04-03T01:44:17;7.70;;;7.00;;
2638;SDS011;1329;51.384;7.122;2023-04-03T01:46:44;8.13;;;7.43;;
2638;SDS011;1329;51.384;7.122;2023-04-03T01:49:12;7.43;;;6.73;;
2638;SDS011;1329;51.384;7.122;2023-04-03T01:51:39;8.00;;;7.30;;
2638;SDS011;1329;51.384;7.122;2023-04-03T01:54:06;8.50;;;7.70;;
2638;SDS011;1329;51.384;7.122;2023-04-03T01:56:33;9.70;;;8.80;;
2638;SDS011;1329;51.384;7.122;2023-04-03T01:59:00;7.90;;;7.20;;
2638;SDS011;1329;51.384;7.122;2023-04-03T02:01:27;8.30;;;7.43;;
2638;SDS011;1329;51.384;7.122;2023-04-03T02:03:54;8.20;;;7.40;;
2638;SDS011;1329;51.384;7.122;2023-04-03T02:06:22;8.80;;;7.90;;
2638;SDS011;1329;51.384;7.122;2023-04-03T02:08:50;9.23;;;8.27;;
2638;SDS011;1329;51.384;7.122;2023-04-03T02:11:17;8.97;;;8.20;;
2638;SDS011;1329;51.384;7.122;2023-04-03T02:13:45;9.43;;;8.53;;
2638;SDS011;1329;51.384;7.122;2023-04-03T02:16:12;9.47;;;8.50;;
2638;SDS011;1329;51.384;7.122;2023-04-03T02:18:38;9.00;;;8.20;;
2638;SDS011;1329;51.384;7.122;2023-04-03T02:21:05;9.60;;;8.63;;
2638;SDS011;1329;51.384;7.122;2023-04-03T02:23:34;9.57;;;8.67;;
2638;SDS011;1329;51.384;7.122;2023-04-03T02:26:02;8.90;;;7.93;;
2638;SDS011;1329;51.384;7.122;2023-04-03T02:28:32;8.63;;;7.73;;
2638;SDS011;1329;51.384;7.122;2023-04-03T02:31:00;10.93;;;9.23;;
2638;SDS011;1329;51.384;7.122;2023-04-03T02:33:28;11.23;;;8.90;;
2638;SDS011;1329;51.384;7.122;2023-04-03T02:35:55;9.33;;;8.27;;
2638;SDS011;1329;51.384;7.122;2023-04-03T02:38:23;9.13;;;8.23;;
2638;SDS011;1329;51.384;7.122;2023-04-03T02:40:52;8.90;;;8.00;;
2638;SDS011;1329;51.384;7.122;2023-04-03T02:43:19;11.20;;;8.77;;
2638;SDS011;1329;51.384;7.122;2023-04-03T02:45:46;9.63;;;8.77;;
2638;SDS011;1329;51.384;7.122;2023-04-03T02:48:13;9.47;;;8.47;;
2638;SDS011;1329;51.384;7.122;2023-04-03T02:50:41;8.33;;;7.50;;
2638;SDS011;1329;51.384;7.122;2023-04-03T02:53:08;10.53;;;8.07;;
2638;SDS011;1329;51.384;7.122;2023-04-03T02:55:43;9.50;;;7.93;;
2638;SDS011;1329;51.384;7.122;2023-04-03T02:58:13;8.77;;;7.87;;
2638;SDS011;1329;51.384;7.122;2023-04-03T03:00:41;8.33;;;7.53;;
2638;SDS011;1329;51.384;7.122;2023-04-03T03:03:11;8.57;;;7.57;;
2638;SDS011;1329;51.384;7.122;2023-04-03T03:05:39;8.93;;;7.90;;
2638;SDS011;1329;51.384;7.122;2023-04-03T03:08:08;8.33;;;7.43;;
2638;SDS011;1329;51.384;7.122;2023-04-03T03:10:35;9.07;;;7.53;;
2638;SDS011;1329;51.384;7.122;2023-04-03T03:13:05;7.80;;;7.00;;
2638;SDS011;1329;51.384;7.122;2023-04-03T03:15:35;8.40;;;7.60;;
2638;SDS011;1329;51.384;7.122;2023-04-03T03:18:08;7.43;;;6.70;;
2638;SDS011;1329;51.384;7.122;2023-04-03T03:20:36;7.63;;;6.87;;
2638;SDS011;1329;51.384;7.122;2023-04-03T03:23:04;8.37;;;6.80;;
2638;SDS011;1329;51.384;7.122;2023-04-03T03:25:31;6.90;;;6.00;;
2638;SDS011;1329;51.384;7.122;2023-04-03T03:27:58;6.63;;;6.03;;
2638;SDS011;1329;51.384;7.122;2023-04-03T03:30:27;7.13;;;6.43;;
2638;SDS011;1329;51.384;7.122;2023-04-03T03:32:58;8.17;;;6.20;;
2638;SDS011;1329;51.384;7.122;2023-04-03T03:35:30;6.73;;;5.97;;
2638;SDS011;1329;51.384;7.122;2023-04-03T03:37:57;7.23;;;6.50;;
2638;SDS011;1329;51.384;7.122;2023-04-03T03:40:24;6.63;;;6.00;;
2638;SDS011;1329;51.384;7.122;2023-04-03T03:42:51;7.50;;;6.37;;
2638;SDS011;1329;51.384;7.122;2023-04-03T03:45:18;6.70;;;5.97;;
2638;SDS011;1329;51.384;7.122;2023-04-03T03:47:45;6.83;;;6.13;;
2638;SDS011;1329;51.384;7.122;2023-04-03T03:50:13;6.93;;;6.00;;
2638;SDS011;1329;51.384;7.122;2023-04-03T03:52:40;7.70;;;5.90;;
2638;SDS011;1329;51.384;7.122;2023-04-03T03:55:07;7.10;;;6.40;;
2638;SDS011;1329;51.384;7.122;2023-04-03T03:57:34;7.73;;;6.03;;
2638;SDS011;1329;51.384;7.122;2023-04-03T04:00:01;7.83;;;5.87;;
2638;SDS011;1329;51.384;7.122;2023-04-03T04:02:29;6.53;;;5.37;;
2638;SDS011;1329;51.384;7.122;2023-04-03T04:04:56;6.57;;;5.57;;
2638;SDS011;1329;51.384;7.122;2023-04-03T04:07:24;5.83;;;5.20;;
2638;SDS011;1329;51.384;7.122;2023-04-03T04:09:53;6.30;;;5.40;;
2638;SDS011;1329;51.384;7.122;2023-04-03T04:12:20;6.57;;;4.80;;
2638;SDS011;1329;51.384;7.122;2023-04-03T04:14:47;5.07;;;4.23;;
2638;SDS011;1329;51.384;7.122;2023-04-03T04:17:14;6.93;;;4.37;;
2638;SDS011;1329;51.384;7.122;2023-04-03T04:19:41;4.33;;;3.93;;
2638;SDS011;1329;51.384;7.122;2023-04-03T04:22:08;5.30;;;4.33;;
2638;SDS011;1329;51.384;7.122;2023-04-03T04:24:36;5.20;;;4.07;;
2638;SDS011;1329;51.384;7.122;2023-04-03T04:27:03;4.97;;;4.00;;
2638;SDS011;1329;51.384;7.122;2023-04-03T04:29:30;6.10;;;4.80;;
2638;SDS011;1329;51.384;7.122;2023-04-03T04:32:00;4.60;;;4.20;;
2638;SDS011;1329;51.384;7.122;2023-04-03T04:34:35;5.63;;;4.03;;
2638;SDS011;1329;51.384;7.122;2023-04-03T04:37:02;6.17;;;4.30;;
2638;SDS011;1329;51.384;7.122;2023-04-03T04:39:29;7.23;;;4.40;;
2638;SDS011;1329;51.384;7.122;2023-04-03T04:41:57;6.97;;;4.50;;
2638;SDS011;1329;51.384;7.122;2023-04-03T04:44:24;6.20;;;4.23;;
2638;SDS011;1329;51.384;7.122;2023-04-03T04:46:51;5.60;;;4.23;;
2638;SDS011;1329;51.384;7.122;2023-04-03T04:49:18;5.13;;;4.63;;
2638;SDS011;1329;51.384;7.122;2023-04-03T04:51:46;5.33;;;4.40;;
2638;SDS011;1329;51.384;7.122;2023-04-03T04:54:13;6.20;;;4.37;;
2638;SDS011;1329;51.384;7.122;2023-04-03T04:56:40;5.67;;;4.17;;
2638;SDS011;1329;51.384;7.122;2023-04-03T04:59:14;5.00;;;4.20;;
2638;SDS011;1329;51.384;7.122;2023-04-03T05:01:41;5.03;;;4.00;;
2638;SDS011;1329;51.384;7.122;2023-04-03T05:04:09;6.47;;;4.30;;
2638;SDS011;1329;51.384;7.122;2023-04-03T05:06:46;5.43;;;4.50;;
2638;SDS011;1329;51.384;7.122;2023-04-03T05:09:15;4.80;;;3.87;;
2638;SDS011;1329;51.384;7.122;2023-04-03T05:11:42;4.87;;;4.30;;
2638;SDS011;1329;51.384;7.122;2023-04-03T05:14:15;5.80;;;3.97;;
2638;SDS011;1329;51.384;7.122;2023-04-03T05:16:44;4.97;;;4.40;;
2638;SDS011;1329;51.384;7.122;2023-04-03T05:19:18;4.70;;;4.00;;
2638;SDS011;1329;51.384;7.122;2023-04-03T05:21:46;4.77;;;4.07;;
2638;SDS011;1329;51.384;7.122;2023-04-03T05:24:13;6.03;;;3.77;;
2638;SDS011;1329;51.384;7.122;2023-04-03T05:26:41;4.10;;;3.70;;
2638;SDS011;1329;51.384;7.122;2023-04-03T05:29:10;4.63;;;3.70;;
2638;SDS011;1329;51.384;7.122;2023-04-03T05:31:40;5.27;;;4.10;;
2638;SDS011;1329;51.384;7.122;2023-04-03T05:34:11;4.40;;;3.60;;
2638;SDS011;1329;51.384;7.122;2023-04-03T05:36:39;3.93;;;3.53;;
2638;SDS011;1329;51.384;7.122;2023-04-03T05:39:08;5.00;;;3.63;;
2638;SDS011;1329;51.384;7.122;2023-04-03T05:41:35;5.63;;;3.40;;
2638;SDS011;1329;51.384;7.122;2023-04-03T05:44:03;4.77;;;3.20;;
2638;SDS011;1329;51.384;7.122;2023-04-03T05:46:31;8.63;;;7.60;;
2638;SDS011;1329;51.384;7.122;2023-04-03T05:49:01;7.40;;;5.73;;
2638;SDS011;1329;51.384;7.122;2023-04-03T05:51:33;20.27;;;18.13;;
2638;SDS011;1329;51.384;7.122;2023-04-03T05:54:06;12.47;;;8.43;;
2638;SDS011;1329;51.384;7.122;2023-04-03T05:56:42;8.53;;;7.53;;
2638;SDS011;1329;51.384;7.122;2023-04-03T05:59:13;6.60;;;5.80;;
2638;SDS011;1329;51.384;7.122;2023-04-03T06:01:44;6.40;;;4.17;;
2638;SDS011;1329;51.384;7.122;2023-04-03T06:04:13;6.43;;;3.90;;
2638;SDS011;1329;51.384;7.122;2023-04-03T06:06:44;6.43;;;3.83;;
2638;SDS011;1329;51.384;7.122;2023-04-03T06:09:13;4.67;;;3.80;;
2638;SDS011;1329;51.384;7.122;2023-04-03T06:11:43;4.33;;;3.60;;
2638;SDS011;1329;51.384;7.122;2023-04-03T06:14:17;5.67;;;3.43;;
2638;SDS011;1329;51.384;7.122;2023-04-03T06:16:45;4.00;;;3.27;;
2638;SDS011;1329;51.384;7.122;2023-04-03T06:19:13;5.03;;;4.33;;
2638;SDS011;1329;51.384;7.122;2023-04-03T06:21:41;4.30;;;3.70;;
2638;SDS011;1329;51.384;7.122;2023-04-03T06:24:07;4.83;;;3.20;;
2638;SDS011;1329;51.384;7.122;2023-04-03T06:26:36;4.17;;;3.27;;
2638;SDS011;1329;51.384;7.122;2023-04-03T06:29:03;4.13;;;3.37;;
2638;SDS011;1329;51.384;7.122;2023-04-03T06:31:31;4.27;;;3.73;;
2638;SDS011;1329;51.384;7.122;2023-04-03T06:34:02;4.33;;;2.87;;
2638;SDS011;1329;51.384;7.122;2023-04-03T06:36:32;5.10;;;3.80;;
2638;SDS011;1329;51.384;7.122;2023-04-03T06:38:59;5.77;;;2.80;;
2638;SDS011;1329;51.384;7.122;2023-04-03T06:41:26;5.27;;;3.00;;
2638;SDS011;1329;51.384;7.122;2023-04-03T06:43:55;3.90;;;3.10;;
2638;SDS011;1329;51.384;7.122;2023-04-03T06:46:23;5.83;;;2.97;;
2638;SDS011;1329;51.384;7.122;2023-04-03T06:48:52;4.87;;;2.60;;
2638;SDS011;1329;51.384;7.122;2023-04-03T06:51:20;5.37;;;2.97;;
2638;SDS011;1329;51.384;7.122;2023-04-03T06:53:51;5.73;;;3.17;;
2638;SDS011;1329;51.384;7.122;2023-04-03T06:56:20;4.77;;;2.70;;
2638;SDS011;1329;51.384;7.122;2023-04-03T06:58:58;5.77;;;3.00;;
2638;SDS011;1329;51.384;7.122;2023-04-03T07:01:31;4.40;;;2.70;;
2638;SDS011;1329;51.384;7.122;2023-04-03T07:03:59;6.33;;;3.10;;
2638;SDS011;1329;51.384;7.122;2023-04-03T07:06:26;5.20;;;3.00;;
2638;SDS011;1329;51.384;7.122;2023-04-03T07:08:58;5.50;;;3.10;;
2638;SDS011;1329;51.384;7.122;2023-04-03T07:11:35;4.90;;;3.17;;
2638;SDS011;1329;51.384;7.122;2023-04-03T07:14:03;4.43;;;3.07;;
2638;SDS011;1329;51.384;7.122;2023-04-03T07:16:31;4.43;;;2.90;;
2638;SDS011;1329;51.384;7.122;2023-04-03T07:19:02;7.00;;;3.70;;
2638;SDS011;1329;51.384;7.122;2023-04-03T07:21:30;5.93;;;3.30;;
2638;SDS011;1329;51.384;7.122;2023-04-03T07:24:04;5.13;;;3.23;;
2638;SDS011;1329;51.384;7.122;2023-04-03T07:26:31;6.27;;;4.07;;
2638;SDS011;1329;51.384;7.122;2023-04-03T07:28:59;11.83;;;8.73;;
2638;SDS011;1329;51.384;7.122;2023-04-03T07:31:27;5.60;;;3.93;;
2638;SDS011;1329;51.384;7.122;2023-04-03T07:33:54;8.47;;;6.10;;
2638;SDS011;1329;51.384;7.122;2023-04-03T07:36:21;4.23;;;3.50;;
2638;SDS011;1329;51.384;7.122;2023-04-03T07:38:49;5.30;;;3.77;;
2638;SDS011;1329;51.384;7.122;2023-04-03T07:41:18;4.53;;;2.93;;
2638;SDS011;1329;51.384;7.122;2023-04-03T07:43:48;5.50;;;3.40;;
2638;SDS011;1329;51.384;7.122;2023-04-03T07:46:17;5.70;;;3.10;;
2638;SDS011;1329;51.384;7.122;2023-04-03T07:48:44;5.73;;;2.97;;
2638;SDS011;1329;51.384;7.122;2023-04-03T07:51:11;5.23;;;3.40;;
2638;SDS011;1329;51.384;7.122;2023-04-03T07:53:38;4.30;;;2.70;;
2638;SDS011;1329;51.384;7.122;2023-04-03T07:56:06;3.70;;;2.77;;
2638;SDS011;1329;51.384;7.122;2023-04-03T07:58:36;5.00;;;3.10;;
2638;SDS011;1329;51.384;7.122;2023-04-03T08:01:03;4.30;;;2.60;;
2638;SDS011;1329;51.384;7.122;2023-04-03T08:03:31;4.23;;;2.47;;
2638;SDS011;1329;51.384;7.122;2023-04-03T08:06:01;5.63;;;2.57;;
2638;SDS011;1329;51.384;7.122;2023-04-03T08:08:30;4.23;;;2.73;;
2638;SDS011;1329;51.384;7.122;2023-04-03T08:10:58;4.43;;;2.40;;
2638;SDS011;1329;51.384;7.122;2023-04-03T08:13:28;5.30;;;2.37;;
2638;SDS011;1329;51.384;7.122;2023-04-03T08:15:57;5.20;;;2.30;;
2638;SDS011;1329;51.384;7.122;2023-04-03T08:18:33;4.50;;;2.50;;
2638;SDS011;1329;51.384;7.122;2023-04-03T08:21:01;4.40;;;2.43;;
2638;SDS011;1329;51.384;7.122;2023-04-03T08:23:33;4.40;;;2.77;;
2638;SDS011;1329;51.384;7.122;2023-04-03T08:26:05;3.67;;;2.20;;
2638;SDS011;1329;51.384;7.122;2023-04-03T08:28:34;3.43;;;2.20;;
2638;SDS011;1329;51.384;7.122;2023-04-03T08:31:05;3.23;;;2.00;;
2638;SDS011;1329;51.384;7.122;2023-04-03T08:33:37;4.13;;;2.00;;
2638;SDS011;1329;51.384;7.122;2023-04-03T08:36:05;4.57;;;2.20;;
2638;SDS011;1329;51.384;7.122;2023-04-03T08:38:41;5.30;;;2.50;;
2638;SDS011;1329;51.384;7.122;2023-04-03T08:41:14;6.33;;;2.80;;
2638;SDS011;1329;51.384;7.122;2023-04-03T08:43:55;4.00;;;2.20;;
2638;SDS011;1329;51.384;7.122;2023-04-03T08:46:37;3.50;;;1.83;;
2638;SDS011;1329;51.384;7.122;2023-04-03T08:49:17;4.60;;;2.50;;
2638;SDS011;1329;51.384;7.122;2023-04-03T08:51:51;2.87;;;2.20;;
2638;SDS011;1329;51.384;7.122;2023-04-03T08:54:24;3.57;;;2.37;;
2638;SDS011;1329;51.384;7.122;2023-04-03T08:56:57;4.50;;;2.37;;
2638;SDS011;1329;51.384;7.122;2023-04-03T08:59:29;3.97;;;2.07;;
2638;SDS011;1329;51.384;7.122;2023-04-03T09:02:04;2.80;;;2.00;;
2638;SDS011;1329;51.384;7.122;2023-04-03T09:04:50;5.13;;;2.27;;
2638;SDS011;1329;51.384;7.122;2023-04-03T09:07:34;3.20;;;1.90;;
2638;SDS011;1329;51.384;7.122;2023-04-03T09:10:13;2.43;;;1.83;;
2638;SDS011;1329;51.384;7.122;2023-04-03T09:12:49;2.20;;;2.00;;
2638;SDS011;1329;51.384;7.122;2023-04-03T09:15:26;6.33;;;2.00;;
2638;SDS011;1329;51.384;7.122;2023-04-03T09:18:02;2.23;;;1.93;;
2638;SDS011;1329;51.384;7.122;2023-04-03T09:20:53;3.33;;;2.30;;
2638;SDS011;1329;51.384;7.122;2023-04-03T09:23:29;3.07;;;2.13;;
2638;SDS011;1329;51.384;7.122;2023-04-03T09:26:01;3.83;;;2.00;;
2638;SDS011;1329;51.384;7.122;2023-04-03T09:28:34;4.37;;;2.40;;
2638;SDS011;1329;51.384;7.122;2023-04-03T09:31:11;3.87;;;2.10;;
2638;SDS011;1329;51.384;7.122;2023-04-03T09:33:48;3.60;;;2.63;;
2638;SDS011;1329;51.384;7.122;2023-04-03T09:39:10;3.93;;;2.30;;
2638;SDS011;1329;51.384;7.122;2023-04-03T09:41:54;3.27;;;2.20;;
2638;SDS011;1329;51.384;7.122;2023-04-03T09:44:27;3.97;;;2.10;;
2638;SDS011;1329;51.384;7.122;2023-04-03T09:49:56;3.47;;;2.10;;
2638;SDS011;1329;51.384;7.122;2023-04-03T09:52:46;2.20;;;1.73;;
2638;SDS011;1329;51.384;7.122;2023-04-03T09:55:17;3.93;;;2.20;;
2638;SDS011;1329;51.384;7.122;2023-04-03T09:57:46;3.60;;;2.30;;
2638;SDS011;1329;51.384;7.122;2023-04-03T10:00:19;3.27;;;2.27;;
2638;SDS011;1329;51.384;7.122;2023-04-03T10:02:58;2.83;;;2.10;;
2638;SDS011;1329;51.384;7.122;2023-04-03T10:05:34;2.87;;;1.97;;
2638;SDS011;1329;51.384;7.122;2023-04-03T10:08:11;2.60;;;1.87;;
2638;SDS011;1329;51.384;7.122;2023-04-03T10:11:05;3.83;;;2.20;;
2638;SDS011;1329;51.384;7.122;2023-04-03T10:13:51;4.23;;;1.90;;
2638;SDS011;1329;51.384;7.122;2023-04-03T10:16:23;2.57;;;1.90;;
2638;SDS011;1329;51.384;7.122;2023-04-03T10:19:02;2.13;;;1.67;;
2638;SDS011;1329;51.384;7.122;2023-04-03T10:22:03;2.80;;;1.73;;
2638;SDS011;1329;51.384;7.122;2023-04-03T10:24:44;3.97;;;1.63;;
2638;SDS011;1329;51.384;7.122;2023-04-03T10:27:23;4.00;;;1.70;;
2638;SDS011;1329;51.384;7.122;2023-04-03T10:30:08;4.03;;;2.00;;
2638;SDS011;1329;51.384;7.122;2023-04-03T10:32:54;3.10;;;1.80;;
2638;SDS011;1329;51.384;7.122;2023-04-03T10:35:37;4.40;;;2.20;;
2638;SDS011;1329;51.384;7.122;2023-04-03T10:38:15;3.27;;;2.10;;
2638;SDS011;1329;51.384;7.122;2023-04-03T10:40:50;3.70;;;2.20;;
2638;SDS011;1329;51.384;7.122;2023-04-03T10:43:29;3.33;;;2.00;;
2638;SDS011;1329;51.384;7.122;2023-04-03T10:46:03;2.30;;;1.87;;
2638;SDS011;1329;51.384;7.122;2023-04-03T10:48:40;2.67;;;2.00;;
2638;SDS011;1329;51.384;7.122;2023-04-03T10:51:23;2.43;;;1.73;;
2638;SDS011;1329;51.384;7.122;2023-04-03T10:54:04;3.30;;;1.97;;
2638;SDS011;1329;51.384;7.122;2023-04-03T10:56:38;3.20;;;1.80;;
2638;SDS011;1329;51.384;7.122;2023-04-03T10:59:17;4.70;;;1.77;;
2638;SDS011;1329;51.384;7.122;2023-04-03T11:01:51;2.73;;;1.93;;
2638;SDS011;1329;51.384;7.122;2023-04-03T11:04:23;2.23;;;1.87;;
2638;SDS011;1329;51.384;7.122;2023-04-03T11:06:56;2.73;;;1.70;;
2638;SDS011;1329;51.384;7.122;2023-04-03T11:09:31;2.57;;;1.83;;
2638;SDS011;1329;51.384;7.122;2023-04-03T11:12:03;2.10;;;1.87;;
2638;SDS011;1329;51.384;7.122;2023-04-03T11:14:37;2.37;;;1.73;;
2638;SDS011;1329;51.384;7.122;2023-04-03T11:17:09;2.40;;;1.67;;
2638;SDS011;1329;51.384;7.122;2023-04-03T11:19:47;3.43;;;2.17;;
2638;SDS011;1329;51.384;7.122;2023-04-03T11:22:22;3.07;;;1.63;;
2638;SDS011;1329;51.384;7.122;2023-04-03T11:24:57;2.60;;;2.00;;
2638;SDS011;1329;51.384;7.122;2023-04-03T11:27:31;1.93;;;1.50;;
2638;SDS011;1329;51.384;7.122;2023-04-03T11:30:05;3.00;;;1.57;;
2638;SDS011;1329;51.384;7.122;2023-04-03T11:32:56;3.10;;;1.80;;
2638;SDS011;1329;51.384;7.122;2023-04-03T11:35:34;1.93;;;1.60;;
2638;SDS011;1329;51.384;7.122;2023-04-03T11:38:03;1.87;;;1.60;;
2638;SDS011;1329;51.384;7.122;2023-04-03T11:40:34;3.83;;;1.90;;
2638;SDS011;1329;51.384;7.122;2023-04-03T11:43:04;2.30;;;1.33;;
2638;SDS011;1329;51.384;7.122;2023-04-03T11:45:35;1.83;;;1.20;;
2638;SDS011;1329;51.384;7.122;2023-04-03T11:48:47;2.10;;;1.40;;
2638;SDS011;1329;51.384;7.122;2023-04-03T12:00:52;2.50;;;1.87;;
2638;SDS011;1329;51.384;7.122;2023-04-03T12:12:43;2.27;;;1.70;;
2638;SDS011;1329;51.384;7.122;2023-04-03T12:18:31;2.90;;;1.63;;
2638;SDS011;1329;51.384;7.122;2023-04-03T12:21:24;3.13;;;1.60;;
2638;SDS011;1329;51.384;7.122;2023-04-03T12:24:36;2.33;;;1.60;;
2638;SDS011;1329;51.384;7.122;2023-04-03T12:27:13;1.93;;;1.60;;
2638;SDS011;1329;51.384;7.122;2023-04-03T12:29:58;1.70;;;1.50;;
2638;SDS011;1329;51.384;7.122;2023-04-03T12:32:37;2.40;;;1.50;;
2638;SDS011;1329;51.384;7.122;2023-04-03T12:35:48;2.27;;;1.70;;
2638;SDS011;1329;51.384;7.122;2023-04-03T12:41:36;2.60;;;1.50;;
2638;SDS011;1329;51.384;7.122;2023-04-03T12:47:01;2.50;;;1.93;;
2638;SDS011;1329;51.384;7.122;2023-04-03T12:49:43;2.03;;;1.60;;
2638;SDS011;1329;51.384;7.122;2023-04-03T12:52:17;3.93;;;1.53;;
2638;SDS011;1329;51.384;7.122;2023-04-03T12:54:56;2.70;;;1.87;;
2638;SDS011;1329;51.384;7.122;2023-04-03T12:57:27;3.30;;;1.80;;
2638;SDS011;1329;51.384;7.122;2023-04-03T12:59:54;3.00;;;1.67;;
2638;SDS011;1329;51.384;7.122;2023-04-03T13:02:25;2.53;;;1.77;;
2638;SDS011;1329;51.384;7.122;2023-04-03T13:04:55;1.67;;;1.57;;
2638;SDS011;1329;51.384;7.122;2023-04-03T13:07:25;2.20;;;1.50;;
2638;SDS011;1329;51.384;7.122;2023-04-03T13:10:02;2.90;;;1.80;;
2638;SDS011;1329;51.384;7.122;2023-04-03T13:12:50;2.50;;;1.60;;
2638;SDS011;1329;51.384;7.122;2023-04-03T13:15:23;1.60;;;1.50;;
2638;SDS011;1329;51.384;7.122;2023-04-03T13:17:57;2.63;;;1.53;;
2638;SDS011;1329;51.384;7.122;2023-04-03T13:20:29;2.67;;;1.60;;
2638;SDS011;1329;51.384;7.122;2023-04-03T13:23:02;2.33;;;1.60;;
2638;SDS011;1329;51.384;7.122;2023-04-03T13:25:34;3.70;;;1.80;;
2638;SDS011;1329;51.384;7.122;2023-04-03T13:28:06;3.43;;;1.60;;
2638;SDS011;1329;51.384;7.122;2023-04-03T13:30:39;2.20;;;1.60;;
2638;SDS011;1329;51.384;7.122;2023-04-03T13:33:19;2.23;;;1.60;;
2638;SDS011;1329;51.384;7.122;2023-04-03T13:35:54;2.30;;;1.80;;
2638;SDS011;1329;51.384;7.122;2023-04-03T13:38:24;2.80;;;1.70;;
2638;SDS011;1329;51.384;7.122;2023-04-03T13:40:58;2.87;;;1.70;;
2638;SDS011;1329;51.384;7.122;2023-04-03T13:43:30;3.10;;;1.67;;
2638;SDS011;1329;51.384;7.122;2023-04-03T13:46:04;2.67;;;1.70;;
2638;SDS011;1329;51.384;7.122;2023-04-03T13:48:51;2.20;;;1.60;;
2638;SDS011;1329;51.384;7.122;2023-04-03T13:51:26;2.33;;;1.50;;
2638;SDS011;1329;51.384;7.122;2023-04-03T13:53:56;3.03;;;1.90;;
2638;SDS011;1329;51.384;7.122;2023-04-03T13:56:29;1.43;;;1.30;;
2638;SDS011;1329;51.384;7.122;2023-04-03T13:59:04;3.30;;;1.80;;
2638;SDS011;1329;51.384;7.122;2023-04-03T14:01:49;3.27;;;1.83;;
2638;SDS011;1329;51.384;7.122;2023-04-03T14:04:22;3.23;;;1.53;;
2638;SDS011;1329;51.384;7.122;2023-04-03T14:06:56;2.33;;;1.70;;
2638;SDS011;1329;51.384;7.122;2023-04-03T14:09:24;3.37;;;1.70;;
2638;SDS011;1329;51.384;7.122;2023-04-03T14:11:54;2.17;;;1.63;;
2638;SDS011;1329;51.384;7.122;2023-04-03T14:14:27;3.37;;;1.70;;
2638;SDS011;1329;51.384;7.122;2023-04-03T14:16:59;3.07;;;1.80;;
2638;SDS011;1329;51.384;7.122;2023-04-03T14:19:32;4.10;;;1.80;;
2638;SDS011;1329;51.384;7.122;2023-04-03T14:22:06;3.07;;;1.50;;
2638;SDS011;1329;51.384;7.122;2023-04-03T14:24:40;2.30;;;1.60;;
2638;SDS011;1329;51.384;7.122;2023-04-03T14:27:11;2.17;;;1.60;;
2638;SDS011;1329;51.384;7.122;2023-04-03T14:29:45;4.23;;;1.60;;
2638;SDS011;1329;51.384;7.122;2023-04-03T14:32:13;3.00;;;1.60;;
2638;SDS011;1329;51.384;7.122;2023-04-03T14:34:45;2.63;;;1.70;;
2638;SDS011;1329;51.384;7.122;2023-04-03T14:37:13;2.60;;;1.50;;
2638;SDS011;1329;51.384;7.122;2023-04-03T14:39:44;4.07;;;1.70;;
2638;SDS011;1329;51.384;7.122;2023-04-03T14:42:14;1.80;;;1.40;;
2638;SDS011;1329;51.384;7.122;2023-04-03T14:44:44;1.63;;;1.50;;
2638;SDS011;1329;51.384;7.122;2023-04-03T14:47:12;3.37;;;1.63;;
2638;SDS011;1329;51.384;7.122;2023-04-03T14:49:48;2.27;;;1.40;;
2638;SDS011;1329;51.384;7.122;2023-04-03T14:52:18;2.10;;;1.67;;
2638;SDS011;1329;51.384;7.122;2023-04-03T14:54:48;2.30;;;1.47;;
2638;SDS011;1329;51.384;7.122;2023-04-03T14:57:20;2.27;;;1.77;;
2638;SDS011;1329;51.384;7.122;2023-04-03T14:59:54;2.73;;;1.40;;
2638;SDS011;1329;51.384;7.122;2023-04-03T15:02:24;2.63;;;1.97;;
2638;SDS011;1329;51.384;7.122;2023-04-03T15:05:02;2.23;;;1.60;;
2638;SDS011;1329;51.384;7.122;2023-04-03T15:07:32;3.43;;;1.80;;
2638;SDS011;1329;51.384;7.122;2023-04-03T15:10:05;3.03;;;1.60;;
2638;SDS011;1329;51.384;7.122;2023-04-03T15:12:44;3.23;;;1.70;;
2638;SDS011;1329;51.384;7.122;2023-04-03T15:15:13;1.67;;;1.50;;
2638;SDS011;1329;51.384;7.122;2023-04-03T15:17:45;2.17;;;1.57;;
2638;SDS011;1329;51.384;7.122;2023-04-03T15:20:17;2.13;;;1.70;;
2638;SDS011;1329;51.384;7.122;2023-04-03T15:22:47;2.63;;;1.60;;
2638;SDS011;1329;51.384;7.122;2023-04-03T15:25:14;1.93;;;1.67;;
2638;SDS011;1329;51.384;7.122;2023-04-03T15:27:43;2.60;;;1.70;;
2638;SDS011;1329;51.384;7.122;2023-04-03T15:30:13;1.67;;;1.57;;
2638;SDS011;1329;51.384;7.122;2023-04-03T15:32:44;2.30;;;1.80;;
2638;SDS011;1329;51.384;7.122;2023-04-03T15:35:11;2.17;;;1.60;;
2638;SDS011;1329;51.384;7.122;2023-04-03T15:37:39;2.70;;;1.60;;
2638;SDS011;1329;51.384;7.122;2023-04-03T15:40:08;2.97;;;1.50;;
2638;SDS011;1329;51.384;7.122;2023-04-03T15:42:40;2.87;;;1.60;;
2638;SDS011;1329;51.384;7.122;2023-04-03T15:45:08;2.40;;;1.60;;
2638;SDS011;1329;51.384;7.122;2023-04-03T15:47:36;3.53;;;1.70;;
2638;SDS011;1329;51.384;7.122;2023-04-03T15:50:04;2.77;;;1.70;;
2638;SDS011;1329;51.384;7.122;2023-04-03T15:52:33;2.97;;;1.60;;
2638;SDS011;1329;51.384;7.122;2023-04-03T15:55:03;3.23;;;2.20;;
2638;SDS011;1329;51.384;7.122;2023-04-03T15:57:34;2.87;;;1.90;;
2638;SDS011;1329;51.384;7.122;2023-04-03T16:00:01;2.80;;;1.80;;
2638;SDS011;1329;51.384;7.122;2023-04-03T16:02:30;3.73;;;1.90;;
2638;SDS011;1329;51.384;7.122;2023-04-03T16:04:57;3.37;;;2.07;;
2638;SDS011;1329;51.384;7.122;2023-04-03T16:07:25;2.87;;;1.70;;
2638;SDS011;1329;51.384;7.122;2023-04-03T16:09:52;2.60;;;2.03;;
2638;SDS011;1329;51.384;7.122;2023-04-03T16:12:22;3.40;;;1.93;;
2638;SDS011;1329;51.384;7.122;2023-04-03T16:14:50;3.50;;;2.23;;
2638;SDS011;1329;51.384;7.122;2023-04-03T16:17:17;2.87;;;2.00;;
2638;SDS011;1329;51.384;7.122;2023-04-03T16:19:45;3.27;;;1.87;;